DeKalb Peachtree Airport
KPDK : now visible

Airfield :











YOU CAN JOIN US ON...

 
LOGIN :

Register | Disclaimer

   EN    FR    IT 

 









Legend :    VFR   Marginal VFR   IFR   Intensive IFR   Very Intensive IFR
Visi :
Ceiling :
>= 8 km
>= 3000ft
5 to 8 km
1000 to 3000 ft
1500m to 5 km
500 to 1000 ft
800 to 1500m
200 to 500 ft
< 800m
< 200 ft
Symbols :   Thunderstorms  Fog  Heavy snow  Heavy precipitations  Wind > 20 kt






- Airport Elevation : 1003 ft


KPDK - DeKalb Peachtree

CURRENT METAR :
  • 191153Z 29006KT 10SM CLR 11/06 A2994 RMK AO2 SLP135 T01060056 10133 20100 53014

EXPIRED METARs :
  • 191053Z 31005KT 10SM CLR 11/06 A2991 RMK AO2 SLP125 T01060056
  • 190953Z 29006KT 10SM CLR 11/06 A2990 RMK AO2 SLP120 T01060056

TAF KPDK
Valid from the 19 at 12:00 until the 20 at 12:00 UTC


191136Z 1912/2012 30006KT P6SM SKC
FM191500 32010G18KT P6SM FEW060
FM200100 34005KT P6SM SKC
FM200800 05005KT P6SM BKN120
KZTL FIR / North America



MET'MAP, your aeronautical weather chart ! - Copyright ORBIFLY December 2007 - Disclaimer

ORBIFLY MET'MAP TEAM :

Programming & Development : Alexandra Zaïnal
Concept & original design : Baudouin d'Aumeries
Assistance for programming : Marc-Olivier Méhu
Technical & hardware support : Manuel Goepfert

Contact : metmap@orbifly.com




SOURCES & CREDITS :

   NOAA       Earth
Advisory